Time;durP1;ratioP1;P1;durP2;ratioP2;P2;SDS_P1;SDS_P2;PMS_P1;PMS_P2;Temp;Humidity;BMP_temperature;BMP_pressure;BME280_temperature;BME280_humidity;BME280_pressure;Samples;Min_cycle;Max_cycle;Signal;HPM_P1;HPM_P2
2022/12/13 00:01:12;;;;;;;16.90;8.30;;;-3.00;99.90;;;;;;5050328;28;20199;-76
2022/12/13 00:03:38;;;;;;;12.40;8.07;;;-3.00;99.90;;;;;;5050259;28;20524;-76
2022/12/13 00:06:06;;;;;;;18.03;9.47;;;-3.00;99.90;;;;;;5050075;28;20405;-76
2022/12/13 00:08:32;;;;;;;12.73;7.53;;;-3.00;99.90;;;;;;5051439;28;20167;-76
2022/12/13 00:10:59;;;;;;;16.00;8.43;;;-3.00;99.90;;;;;;5051530;28;20405;-76
2022/12/13 00:13:25;;;;;;;13.93;7.60;;;-3.10;99.90;;;;;;5051407;28;20182;-76
2022/12/13 00:15:58;;;;;;;22.33;9.20;;;-3.10;99.90;;;;;;5050127;28;20421;-76
2022/12/13 00:18:24;;;;;;;21.20;9.50;;;-3.10;99.90;;;;;;5055252;28;20167;-76
2022/12/13 00:20:50;;;;;;;17.57;8.90;;;-3.10;99.90;;;;;;5055106;28;20825;-76
2022/12/13 00:23:15;;;;;;;18.80;8.50;;;-3.10;99.90;;;;;;5055110;28;20432;-77
2022/12/13 00:25:41;;;;;;;16.90;10.70;;;-3.10;99.90;;;;;;5054944;28;20175;-76
2022/12/13 00:28:07;;;;;;;18.03;8.67;;;-3.10;99.90;;;;;;5054653;28;20178;-77
2022/12/13 00:30:33;;;;;;;25.80;10.50;;;-3.10;99.90;;;;;;5054753;28;20179;-76
2022/12/13 00:32:59;;;;;;;26.67;8.53;;;-3.20;99.90;;;;;;5054616;28;20402;-76
2022/12/13 00:35:24;;;;;;;17.83;7.87;;;-3.20;99.90;;;;;;5054700;28;20488;-76
2022/12/13 00:37:50;;;;;;;18.13;9.57;;;-3.20;99.90;;;;;;5055062;28;20625;-76
2022/12/13 00:40:15;;;;;;;18.93;10.07;;;-3.20;99.90;;;;;;5054929;28;20167;-76
2022/12/13 00:42:41;;;;;;;25.40;8.30;;;-3.20;99.90;;;;;;5054803;28;20655;-76
2022/12/13 00:45:08;;;;;;;27.30;10.57;;;-3.20;99.90;;;;;;5052626;28;20197;-76
2022/12/13 00:47:34;;;;;;;18.67;8.50;;;-3.20;99.90;;;;;;5052676;28;20257;-76
2022/12/13 00:49:59;;;;;;;23.80;10.63;;;-3.20;99.90;;;;;;5054590;28;20467;-76
2022/12/13 00:52:25;;;;;;;18.00;10.47;;;-3.20;99.90;;;;;;5054654;28;20894;-76
2022/12/13 00:54:51;;;;;;;17.07;8.87;;;-3.20;99.90;;;;;;5053995;28;20242;-76
2022/12/13 00:57:16;;;;;;;22.23;9.73;;;-3.20;99.90;;;;;;5054636;28;20225;-76
2022/12/13 00:59:42;;;;;;;13.47;9.10;;;-3.20;99.90;;;;;;5054737;28;20178;-76
2022/12/13 01:02:07;;;;;;;16.73;9.60;;;-3.30;99.90;;;;;;5053076;28;20206;-76
2022/12/13 01:04:33;;;;;;;15.30;7.33;;;-3.30;99.90;;;;;;5053979;28;20191;-76
2022/12/13 01:06:58;;;;;;;16.43;8.80;;;-3.30;99.90;;;;;;5054482;28;20171;-76
2022/12/13 01:09:27;;;;;;;19.83;8.30;;;-3.40;99.90;;;;;;5054380;28;20167;-76
2022/12/13 01:11:58;;;;;;;11.73;8.17;;;-3.40;99.90;;;;;;5054388;28;20171;-76
2022/12/13 01:14:24;;;;;;;21.23;9.73;;;-3.40;99.90;;;;;;5053812;28;20449;-76
2022/12/13 01:16:50;;;;;;;19.83;10.40;;;-3.40;99.90;;;;;;5054025;28;20406;-76
2022/12/13 01:19:15;;;;;;;29.53;12.10;;;-3.40;99.90;;;;;;5053854;28;20395;-76
2022/12/13 01:21:41;;;;;;;14.87;8.80;;;-3.30;99.90;;;;;;5054183;28;20194;-76
2022/12/13 01:24:07;;;;;;;14.87;8.37;;;-3.30;99.90;;;;;;5054067;28;20197;-76
2022/12/13 01:26:33;;;;;;;18.17;8.43;;;-3.30;99.90;;;;;;5053404;28;20167;-76
2022/12/13 01:28:59;;;;;;;18.30;11.30;;;-3.30;99.90;;;;;;5053969;28;20202;-76
2022/12/13 01:31:25;;;;;;;24.60;10.37;;;-3.30;99.90;;;;;;5053716;28;20425;-76
2022/12/13 01:33:50;;;;;;;21.10;10.70;;;-3.30;99.90;;;;;;5053755;28;20460;-76
2022/12/13 01:36:21;;;;;;;15.93;8.60;;;-3.30;99.90;;;;;;5052475;28;20444;-76
2022/12/13 01:38:46;;;;;;;23.00;11.20;;;-3.30;99.90;;;;;;5053863;28;20229;-76
2022/12/13 01:41:14;;;;;;;15.07;9.13;;;-3.30;99.90;;;;;;5053693;28;20452;-76
2022/12/13 01:43:40;;;;;;;11.43;8.63;;;-3.30;99.90;;;;;;5053588;28;20617;-76
2022/12/13 01:46:05;;;;;;;14.63;7.70;;;-3.40;99.90;;;;;;5053361;28;20433;-76
2022/12/13 01:48:38;;;;;;;13.67;8.30;;;-3.30;99.90;;;;;;5052007;28;20171;-76
2022/12/13 01:51:06;;;;;;;25.87;11.23;;;-3.40;99.90;;;;;;5053310;28;20167;-76
2022/12/13 01:53:35;;;;;;;17.40;8.40;;;-3.40;99.90;;;;;;5053302;28;20437;-76
2022/12/13 01:56:07;;;;;;;18.30;9.13;;;-3.40;99.90;;;;;;5051729;28;20417;-76
2022/12/13 01:58:34;;;;;;;16.80;9.40;;;-3.40;99.90;;;;;;5053480;28;20410;-76
2022/12/13 02:01:00;;;;;;;22.17;12.90;;;-3.40;99.90;;;;;;5051877;28;20552;-76
2022/12/13 02:03:26;;;;;;;18.20;9.00;;;-3.40;99.90;;;;;;5053489;28;20909;-76
2022/12/13 02:06:06;;;;;;;15.73;8.93;;;-3.40;99.90;;;;;;5053140;28;20213;-75
2022/12/13 02:08:33;;;;;;;20.77;8.70;;;-3.40;99.90;;;;;;5053304;28;20413;-76
2022/12/13 02:11:00;;;;;;;12.90;8.43;;;-3.40;99.90;;;;;;5053214;28;20929;-76
2022/12/13 02:13:26;;;;;;;21.77;9.93;;;-3.50;99.90;;;;;;5053168;28;20433;-76
2022/12/13 02:15:57;;;;;;;15.70;8.83;;;-3.50;99.90;;;;;;5051497;28;20419;-76
2022/12/13 02:18:56;;;;;;;14.83;8.47;;;-3.50;99.90;;;;;;5053096;28;20204;-76
2022/12/13 02:21:42;;;;;;;23.00;9.50;;;-3.50;99.90;;;;;;5052579;28;20586;-76
2022/12/13 02:24:29;;;;;;;22.83;12.13;;;-3.50;99.90;;;;;;5052900;28;20494;-77
2022/12/13 02:27:07;;;;;;;14.17;10.30;;;-3.60;99.90;;;;;;5051522;28;20436;-76
2022/12/13 02:29:55;;;;;;;23.30;11.17;;;-3.50;99.90;;;;;;5051597;28;20882;-76
2022/12/13 02:32:46;;;;;;;13.67;7.80;;;-3.50;99.90;;;;;;5051259;28;20519;-76
2022/12/13 02:35:21;;;;;;;25.53;11.33;;;-3.50;99.90;;;;;;5052479;28;20405;-76
2022/12/13 02:37:54;;;;;;;17.73;9.40;;;-3.50;99.90;;;;;;5052551;28;20487;-76
2022/12/13 02:40:22;;;;;;;31.70;10.57;;;-3.60;99.90;;;;;;5050631;28;20418;-76
2022/12/13 02:43:28;;;;;;;17.97;9.00;;;-3.60;99.90;;;;;;5052467;28;20503;-76
2022/12/13 02:45:58;;;;;;;16.90;8.80;;;-3.50;99.90;;;;;;5009623;28;20472;-76
2022/12/13 02:48:28;;;;;;;19.93;11.07;;;-3.60;99.90;;;;;;5028820;28;20422;-77
2022/12/13 02:50:55;;;;;;;23.03;12.07;;;-3.60;99.90;;;;;;5032840;28;20441;-76
2022/12/13 02:53:23;;;;;;;22.07;7.23;;;-3.60;99.90;;;;;;5032426;28;20426;-76
2022/12/13 02:55:48;;;;;;;21.00;9.10;;;-3.60;99.90;;;;;;5030563;28;20904;-78
2022/12/13 02:58:32;;;;;;;15.20;9.47;;;-3.60;99.90;;;;;;5032312;28;20422;-76
2022/12/13 03:01:03;;;;;;;16.50;8.43;;;-3.60;99.90;;;;;;5032434;28;20203;-75
2022/12/13 03:04:05;;;;;;;14.83;8.80;;;-3.60;99.90;;;;;;5030904;28;20434;-76
2022/12/13 03:07:16;;;;;;;15.00;8.50;;;-3.70;99.90;;;;;;5032050;28;20475;-76
2022/12/13 03:09:58;;;;;;;18.63;9.73;;;-3.70;99.90;;;;;;5016083;28;20417;-75
2022/12/13 03:15:33;;;;;;;29.63;14.43;;;-3.60;99.90;;;;;;5032215;28;20413;-75
2022/12/13 03:18:05;;;;;;;20.30;9.33;;;-3.60;99.90;;;;;;5032114;28;20402;-76
2022/12/13 03:20:30;;;;;;;23.53;9.10;;;-3.60;99.90;;;;;;5032214;28;20440;-75
2022/12/13 03:22:57;;;;;;;26.30;12.87;;;-3.60;99.90;;;;;;5031910;28;20458;-75
2022/12/13 03:25:29;;;;;;;24.67;10.00;;;-3.60;99.90;;;;;;5030552;28;20285;-75
2022/12/13 03:27:55;;;;;;;15.30;9.80;;;-3.60;99.90;;;;;;5032111;28;20943;-75
2022/12/13 03:30:20;;;;;;;30.40;10.67;;;-3.60;99.90;;;;;;5031775;28;20429;-75
2022/12/13 03:32:46;;;;;;;16.10;8.33;;;-3.50;99.90;;;;;;5031961;28;20256;-75
2022/12/13 03:35:11;;;;;;;22.20;10.70;;;-3.50;99.90;;;;;;5031633;28;20171;-75
2022/12/13 03:37:37;;;;;;;20.77;9.90;;;-3.60;99.90;;;;;;5031909;28;20176;-75
2022/12/13 03:40:03;;;;;;;26.30;11.80;;;-3.60;99.90;;;;;;5031877;28;20525;-75
2022/12/13 03:42:28;;;;;;;19.80;9.00;;;-3.60;99.90;;;;;;5031893;28;20195;-76
2022/12/13 03:44:54;;;;;;;14.83;8.57;;;-3.70;99.90;;;;;;5030186;28;20430;-76
2022/12/13 03:47:19;;;;;;;22.40;10.20;;;-3.70;99.90;;;;;;5031824;28;20613;-75
2022/12/13 03:49:45;;;;;;;18.50;8.70;;;-3.70;99.90;;;;;;5032067;28;20168;-76
2022/12/13 03:52:10;;;;;;;25.97;10.50;;;-3.80;99.90;;;;;;5035655;28;20221;-75
2022/12/13 03:54:36;;;;;;;26.87;11.10;;;-3.80;99.90;;;;;;5034112;28;20195;-76
2022/12/13 03:57:02;;;;;;;25.97;12.07;;;-3.90;99.90;;;;;;5035842;28;20172;-76
2022/12/13 03:59:27;;;;;;;17.27;9.33;;;-3.90;99.90;;;;;;5034463;28;20183;-76
2022/12/13 04:01:53;;;;;;;19.97;9.53;;;-3.90;99.90;;;;;;5035701;28;20249;-76
2022/12/13 04:04:18;;;;;;;19.53;10.67;;;-4.00;99.90;;;;;;5035358;28;20187;-76
2022/12/13 04:06:44;;;;;;;27.70;12.13;;;-4.00;99.90;;;;;;5034407;28;20168;-75
2022/12/13 04:09:09;;;;;;;19.67;10.60;;;-4.10;99.90;;;;;;5035443;28;20536;-76
2022/12/13 04:14:19;;;;;;;19.77;10.03;;;-4.10;99.90;;;;;;5035411;28;20691;-75
2022/12/13 04:16:44;;;;;;;16.80;9.60;;;-4.10;99.90;;;;;;5035263;28;20438;-76
2022/12/13 04:19:10;;;;;;;24.67;11.70;;;-4.20;99.90;;;;;;5034092;28;20187;-76
2022/12/13 04:21:35;;;;;;;21.00;10.27;;;-4.20;99.90;;;;;;5033976;28;20290;-76
2022/12/13 04:24:01;;;;;;;18.10;10.20;;;-4.30;99.90;;;;;;5035084;28;20190;-76
2022/12/13 04:26:27;;;;;;;23.30;11.50;;;-4.20;99.90;;;;;;5034962;28;20163;-76
2022/12/13 04:28:52;;;;;;;20.67;11.80;;;-4.30;99.90;;;;;;5035214;28;20243;-76
2022/12/13 04:31:18;;;;;;;23.50;12.03;;;-4.30;99.90;;;;;;5033529;28;20532;-76
2022/12/13 04:33:43;;;;;;;19.53;9.43;;;-4.30;99.90;;;;;;5034969;28;20195;-76
2022/12/13 04:36:09;;;;;;;27.63;9.60;;;-4.40;99.90;;;;;;5034665;28;20290;-76
2022/12/13 04:38:34;;;;;;;24.27;11.57;;;-4.40;99.90;;;;;;5034925;28;20203;-76
2022/12/13 04:41:12;;;;;;;17.53;9.43;;;-4.40;99.90;;;;;;5033561;28;20208;-76
2022/12/13 04:43:37;;;;;;;22.30;8.83;;;-4.40;99.90;;;;;;5035013;28;20532;-76
2022/12/13 04:46:03;;;;;;;25.50;11.17;;;-4.40;99.90;;;;;;5034537;28;20412;-76
2022/12/13 04:48:28;;;;;;;23.43;11.97;;;-4.30;99.90;;;;;;5034776;28;20174;-76
2022/12/13 04:50:54;;;;;;;21.90;10.37;;;-4.20;99.90;;;;;;5034469;28;20167;-76
2022/12/13 04:53:19;;;;;;;21.97;11.20;;;-4.10;99.90;;;;;;5034109;28;20354;-76
2022/12/13 04:55:45;;;;;;;19.10;9.77;;;-4.10;99.90;;;;;;5033415;28;20170;-76
2022/12/13 04:58:10;;;;;;;27.20;12.57;;;-3.90;99.90;;;;;;5034752;28;20207;-76
2022/12/13 05:00:36;;;;;;;28.23;10.67;;;-3.80;99.90;;;;;;5033304;28;20175;-75
2022/12/13 05:03:01;;;;;;;20.83;10.40;;;-3.70;99.90;;;;;;5033799;28;20637;-75
2022/12/13 05:05:27;;;;;;;31.40;13.00;;;-3.60;99.90;;;;;;5034377;28;20195;-75
2022/12/13 05:07:52;;;;;;;23.50;11.77;;;-3.50;99.90;;;;;;5034379;28;20176;-75
2022/12/13 05:10:18;;;;;;;22.70;13.10;;;-3.40;99.90;;;;;;5034467;28;20175;-76
2022/12/13 05:12:43;;;;;;;26.30;14.90;;;-3.30;99.90;;;;;;5034217;28;20182;-75
2022/12/13 05:15:09;;;;;;;33.73;15.53;;;-3.40;99.90;;;;;;5032334;28;20214;-76
2022/12/13 05:17:34;;;;;;;39.87;13.90;;;-3.30;99.90;;;;;;5034006;28;20210;-75
2022/12/13 05:20:01;;;;;;;33.57;13.50;;;-3.30;99.90;;;;;;5034313;28;20182;-76
2022/12/13 05:22:26;;;;;;;26.67;14.10;;;-3.30;99.90;;;;;;5033987;28;20203;-75
2022/12/13 05:24:52;;;;;;;35.67;14.83;;;-3.30;99.90;;;;;;5033967;28;20441;-75
2022/12/13 05:27:18;;;;;;;29.17;12.07;;;-3.20;99.90;;;;;;5034225;28;20258;-76
2022/12/13 05:29:43;;;;;;;18.77;11.90;;;-3.20;99.90;;;;;;5034147;28;20168;-76
2022/12/13 05:32:09;;;;;;;24.90;12.13;;;-3.10;99.90;;;;;;5033926;28;20438;-76
2022/12/13 05:34:34;;;;;;;25.80;11.03;;;-3.10;99.90;;;;;;5033663;28;20215;-76
2022/12/13 05:37:00;;;;;;;22.57;12.63;;;-3.20;99.90;;;;;;5033933;28;20574;-76
2022/12/13 05:39:25;;;;;;;20.00;9.83;;;-3.20;99.90;;;;;;5034013;28;20589;-76
2022/12/13 05:41:52;;;;;;;25.57;11.77;;;-3.20;99.90;;;;;;5033902;28;20253;-76
2022/12/13 05:44:17;;;;;;;26.07;12.90;;;-3.20;99.90;;;;;;5033403;28;20207;-76
2022/12/13 05:46:43;;;;;;;22.73;11.40;;;-3.20;99.90;;;;;;5033846;28;20402;-76
2022/12/13 05:49:08;;;;;;;36.63;14.67;;;-3.20;99.90;;;;;;5033545;28;20175;-75
2022/12/13 05:51:34;;;;;;;26.43;13.67;;;-3.10;99.90;;;;;;5033664;28;20195;-76
2022/12/13 05:53:59;;;;;;;26.53;13.50;;;-3.10;99.90;;;;;;5033923;28;20281;-75
2022/12/13 05:56:25;;;;;;;25.83;10.93;;;-3.10;99.90;;;;;;5033353;28;20302;-76
2022/12/13 05:58:50;;;;;;;29.07;13.83;;;-3.10;99.90;;;;;;5033580;28;20180;-76
2022/12/13 06:01:16;;;;;;;20.23;9.40;;;-3.10;99.90;;;;;;5034948;28;20191;-77
2022/12/13 06:03:42;;;;;;;26.70;12.90;;;-3.10;99.90;;;;;;5033812;28;20195;-76
2022/12/13 06:06:09;;;;;;;21.80;11.10;;;-3.10;99.90;;;;;;5033193;28;20282;-77
2022/12/13 06:08:35;;;;;;;23.20;11.60;;;-3.20;99.90;;;;;;5035023;28;20434;-77
2022/12/13 06:11:02;;;;;;;21.53;9.00;;;-3.20;99.90;;;;;;5034846;28;20771;-77
2022/12/13 06:13:28;;;;;;;22.23;10.30;;;-3.20;99.90;;;;;;5032551;28;20441;-77
2022/12/13 06:15:54;;;;;;;19.80;11.70;;;-3.20;99.90;;;;;;5033476;28;20912;-77
2022/12/13 06:18:19;;;;;;;21.43;9.20;;;-3.20;99.90;;;;;;5033753;28;20183;-76
2022/12/13 06:20:54;;;;;;;23.30;10.37;;;-3.20;99.90;;;;;;5033090;28;20182;-76
2022/12/13 06:23:19;;;;;;;20.57;11.23;;;-3.20;99.90;;;;;;5033008;28;20215;-77
2022/12/13 06:25:45;;;;;;;24.00;11.13;;;-3.30;99.90;;;;;;5032994;28;20884;-77
2022/12/13 06:28:10;;;;;;;36.10;11.50;;;-3.30;99.90;;;;;;5033482;28;20168;-77
2022/12/13 06:30:36;;;;;;;24.03;11.30;;;-3.20;99.90;;;;;;5033902;28;20556;-77
2022/12/13 06:33:02;;;;;;;31.03;10.77;;;-3.20;99.90;;;;;;5033048;28;20836;-77
2022/12/13 06:35:27;;;;;;;23.80;9.70;;;-3.40;99.90;;;;;;5032387;28;20410;-77
2022/12/13 06:37:53;;;;;;;24.80;10.37;;;-3.40;99.90;;;;;;5033121;28;20213;-77
2022/12/13 06:40:19;;;;;;;19.30;10.47;;;-3.50;99.90;;;;;;5031678;28;20179;-76
2022/12/13 06:42:44;;;;;;;19.70;10.43;;;-3.70;99.90;;;;;;5033803;28;20680;-77
2022/12/13 06:45:10;;;;;;;16.47;7.90;;;-3.80;99.90;;;;;;5032174;28;20193;-77
2022/12/13 06:47:35;;;;;;;21.70;10.77;;;-3.90;99.90;;;;;;5032819;28;20263;-77
2022/12/13 06:50:01;;;;;;;20.50;9.40;;;-3.90;99.90;;;;;;5031433;28;20172;-77
2022/12/13 06:52:26;;;;;;;22.23;11.43;;;-4.00;99.90;;;;;;5033187;28;20175;-77
2022/12/13 06:54:52;;;;;;;17.20;8.57;;;-4.00;99.90;;;;;;5031996;28;20222;-77
2022/12/13 06:57:18;;;;;;;18.57;9.60;;;-4.00;99.90;;;;;;5033274;28;20629;-76
2022/12/13 06:59:44;;;;;;;24.97;10.00;;;-4.10;99.90;;;;;;5032834;28;20414;-78
2022/12/13 07:02:09;;;;;;;17.83;8.97;;;-4.10;99.90;;;;;;5039495;28;20195;-75
2022/12/13 07:04:35;;;;;;;22.00;10.17;;;-4.20;99.90;;;;;;5032645;28;20198;-77
2022/12/13 07:07:01;;;;;;;22.50;10.73;;;-4.10;99.90;;;;;;5032896;28;20407;-78
2022/12/13 07:09:27;;;;;;;27.80;10.07;;;-4.20;99.90;;;;;;5033455;28;20166;-78
2022/12/13 07:11:52;;;;;;;20.00;11.40;;;-4.30;99.90;;;;;;5032904;28;20415;-75
2022/12/13 07:14:19;;;;;;;24.70;10.37;;;-4.30;99.90;;;;;;5032300;28;20572;-76
2022/12/13 07:16:44;;;;;;;16.23;7.97;;;-4.30;99.90;;;;;;5031740;28;20544;-76
2022/12/13 07:19:10;;;;;;;13.83;9.20;;;-4.30;99.90;;;;;;5032125;28;20398;-75
2022/12/13 07:21:37;;;;;;;18.57;10.50;;;-4.30;99.90;;;;;;5032347;28;20199;-76
2022/12/13 07:24:03;;;;;;;18.63;11.67;;;-4.30;99.90;;;;;;5032065;28;20513;-76
2022/12/13 07:26:28;;;;;;;16.30;9.20;;;-4.30;99.90;;;;;;5030234;28;20445;-76
2022/12/13 07:28:54;;;;;;;29.20;9.67;;;-4.30;99.90;;;;;;5031597;28;20415;-77
2022/12/13 07:31:20;;;;;;;16.33;10.20;;;-4.30;99.90;;;;;;5030645;28;20202;-77
2022/12/13 07:33:45;;;;;;;18.53;8.57;;;-4.30;99.90;;;;;;5032647;28;20183;-77
2022/12/13 07:36:13;;;;;;;23.10;9.10;;;-4.30;99.90;;;;;;5030720;28;20179;-77
2022/12/13 07:38:39;;;;;;;21.30;10.50;;;-4.30;99.90;;;;;;5032421;28;20665;-77
2022/12/13 07:41:05;;;;;;;12.87;6.97;;;-4.40;99.90;;;;;;5031687;28;20454;-77
2022/12/13 07:43:31;;;;;;;22.30;8.70;;;-4.40;99.90;;;;;;5033520;28;20214;-77
2022/12/13 07:45:58;;;;;;;16.17;8.80;;;-4.30;99.90;;;;;;5033187;28;20407;-77
2022/12/13 07:48:25;;;;;;;22.00;9.07;;;-4.20;99.90;;;;;;5031748;28;20453;-77
2022/12/13 07:50:51;;;;;;;15.37;6.90;;;-4.10;99.90;;;;;;5031045;28;20463;-76
2022/12/13 07:53:17;;;;;;;16.87;9.27;;;-4.00;99.90;;;;;;5038196;28;20426;-76
2022/12/13 07:55:42;;;;;;;18.50;10.93;;;-3.90;99.90;;;;;;5030695;28;20925;-77
2022/12/13 07:58:13;;;;;;;24.00;9.63;;;-3.80;99.90;;;;;;5032431;28;20250;-76
2022/12/13 08:00:41;;;;;;;22.37;8.87;;;-3.70;99.90;;;;;;5031907;28;20222;-77
2022/12/13 08:03:07;;;;;;;23.37;9.27;;;-3.70;99.90;;;;;;5032810;28;20868;-76
2022/12/13 08:05:34;;;;;;;22.83;9.03;;;-3.60;99.90;;;;;;5031200;28;20472;-77
2022/12/13 08:08:00;;;;;;;20.77;10.13;;;-3.40;99.90;;;;;;5030459;28;20171;-77
2022/12/13 08:10:26;;;;;;;25.47;12.77;;;-3.30;99.90;;;;;;5036653;28;20406;-77
2022/12/13 08:12:52;;;;;;;20.77;12.13;;;-2.50;99.90;;;;;;5034950;28;20453;-76
2022/12/13 08:15:18;;;;;;;22.37;11.90;;;-1.60;99.90;;;;;;5031339;28;20410;-76
2022/12/13 08:17:43;;;;;;;17.47;9.47;;;-0.70;99.90;;;;;;5031758;28;20172;-76
2022/12/13 08:20:09;;;;;;;26.80;9.73;;;0.00;99.90;;;;;;5030949;28;20410;-77
2022/12/13 08:22:35;;;;;;;28.93;12.17;;;0.80;99.90;;;;;;5031459;28;20572;-76
2022/12/13 08:25:01;;;;;;;17.70;10.47;;;1.50;99.90;;;;;;5030840;28;20191;-76
2022/12/13 08:27:27;;;;;;;19.87;11.23;;;2.00;99.90;;;;;;5030832;28;20172;-78
2022/12/13 08:29:54;;;;;;;21.00;11.57;;;2.60;99.90;;;;;;5034902;28;20420;-79
2022/12/13 08:32:20;;;;;;;23.53;10.73;;;2.90;99.90;;;;;;5036899;28;20274;-79
2022/12/13 08:34:46;;;;;;;20.47;10.97;;;3.10;99.90;;;;;;5033170;28;20434;-79
2022/12/13 08:37:11;;;;;;;16.67;10.83;;;3.60;99.90;;;;;;5033929;28;20510;-80
2022/12/13 08:39:38;;;;;;;17.67;10.53;;;4.20;99.90;;;;;;5039746;28;20201;-80
2022/12/13 08:42:15;;;;;;;19.73;11.77;;;4.90;99.90;;;;;;5046520;28;20500;-79
2022/12/13 08:44:41;;;;;;;17.30;11.13;;;5.60;99.90;;;;;;5048176;28;20417;-79
2022/12/13 08:47:07;;;;;;;18.67;10.43;;;6.20;99.90;;;;;;5047726;28;20410;-79
2022/12/13 08:49:33;;;;;;;17.70;10.53;;;6.70;99.90;;;;;;5038585;28;20418;-79
2022/12/13 08:51:59;;;;;;;16.33;9.27;;;7.30;99.90;;;;;;5037910;28;20410;-80
2022/12/13 08:54:24;;;;;;;16.43;9.20;;;7.20;98.80;;;;;;5039261;28;20184;-78
2022/12/13 08:56:50;;;;;;;16.47;9.90;;;6.60;97.90;;;;;;5037451;28;20261;-79
2022/12/13 08:59:17;;;;;;;22.83;10.90;;;5.90;98.10;;;;;;5040111;28;21078;-78
2022/12/13 09:01:42;;;;;;;22.23;12.13;;;6.10;99.90;;;;;;5041392;28;20222;-79
2022/12/13 09:04:08;;;;;;;13.30;9.20;;;5.80;99.20;;;;;;5041667;28;20430;-79
2022/12/13 09:06:33;;;;;;;19.90;9.57;;;5.80;99.90;;;;;;5045826;28;20166;-79
2022/12/13 09:08:59;;;;;;;13.33;7.53;;;5.70;99.90;;;;;;5037864;28;20171;-81
2022/12/13 09:11:24;;;;;;;18.23;9.90;;;5.80;99.90;;;;;;5037018;28;20179;-79
2022/12/13 09:13:50;;;;;;;15.27;8.93;;;6.20;99.90;;;;;;5039925;28;20199;-79
2022/12/13 09:16:21;;;;;;;17.77;10.87;;;6.60;99.90;;;;;;5041103;28;20184;-78
2022/12/13 09:18:46;;;;;;;18.27;10.87;;;7.30;98.00;;;;;;5041803;28;20179;-79
2022/12/13 09:21:14;;;;;;;15.50;9.23;;;8.00;93.80;;;;;;5042901;28;20950;-80
2022/12/13 09:23:43;;;;;;;16.90;9.23;;;8.40;92.80;;;;;;5040630;28;20282;-80
2022/12/13 09:26:14;;;;;;;18.63;9.57;;;8.70;86.70;;;;;;5038448;28;20402;-79
2022/12/13 09:28:40;;;;;;;17.50;9.67;;;9.00;80.40;;;;;;5041941;28;20414;-79
2022/12/13 09:31:08;;;;;;;14.60;9.50;;;9.80;80.60;;;;;;5040587;28;20442;-79
2022/12/13 09:33:34;;;;;;;18.27;9.23;;;10.10;75.10;;;;;;5040811;28;20429;-78
2022/12/13 09:36:06;;;;;;;16.57;9.73;;;10.00;68.50;;;;;;5039335;28;20931;-79
2022/12/13 09:38:35;;;;;;;23.93;10.20;;;10.30;68.50;;;;;;5041557;28;20167;-79
2022/12/13 09:41:20;;;;;;;16.30;10.17;;;10.50;65.90;;;;;;5035337;28;20782;-78
2022/12/13 09:43:50;;;;;;;16.20;9.20;;;10.30;63.60;;;;;;5040221;28;20850;-79
2022/12/13 09:46:30;;;;;;;14.30;10.37;;;9.70;61.50;;;;;;5039924;28;20411;-78
2022/12/13 09:48:57;;;;;;;15.90;10.40;;;9.30;62.40;;;;;;5039041;28;20409;-78
2022/12/13 09:51:25;;;;;;;19.13;9.70;;;8.80;63.20;;;;;;5036190;28;20438;-78
2022/12/13 09:54:00;;;;;;;18.60;11.50;;;8.40;64.50;;;;;;5036011;28;20436;-77
2022/12/13 09:56:26;;;;;;;17.50;8.90;;;8.20;65.90;;;;;;5039469;28;20414;-78
2022/12/13 09:58:55;;;;;;;19.20;10.40;;;8.50;68.30;;;;;;5045492;28;20417;-79
2022/12/13 10:01:21;;;;;;;18.17;10.83;;;9.00;67.60;;;;;;5040616;28;20826;-78
2022/12/13 10:03:49;;;;;;;14.90;9.50;;;9.30;65.00;;;;;;5043071;28;20434;-78
2022/12/13 10:06:22;;;;;;;15.10;8.93;;;9.30;65.70;;;;;;5037106;28;20849;-79
2022/12/13 10:08:53;;;;;;;18.63;8.00;;;10.00;64.40;;;;;;5035603;28;20410;-79
2022/12/13 10:11:21;;;;;;;15.10;8.97;;;10.60;62.10;;;;;;5034805;28;20418;-78
2022/12/13 10:14:11;;;;;;;12.70;8.90;;;11.00;59.10;;;;;;5041711;28;20434;-80
2022/12/13 10:16:36;;;;;;;17.60;9.93;;;11.20;58.50;;;;;;5038686;28;20422;-79
2022/12/13 10:19:24;;;;;;;12.20;8.17;;;12.00;58.90;;;;;;5045085;28;20419;-80
2022/12/13 10:21:50;;;;;;;15.03;8.83;;;13.00;56.40;;;;;;5034889;28;20684;-79
2022/12/13 10:24:21;;;;;;;16.87;9.37;;;14.00;55.00;;;;;;5032803;28;20430;-79
2022/12/13 10:26:47;;;;;;;12.20;8.30;;;15.30;53.60;;;;;;5039426;28;20437;-79
2022/12/13 10:29:13;;;;;;;17.47;9.00;;;16.20;51.00;;;;;;5044525;28;20434;-80
2022/12/13 10:31:47;;;;;;;14.17;9.53;;;16.90;48.90;;;;;;5047239;28;20261;-80
2022/12/13 10:34:23;;;;;;;14.23;9.30;;;16.80;45.80;;;;;;5034909;28;20439;-78
2022/12/13 10:36:52;;;;;;;18.00;9.93;;;17.10;45.30;;;;;;5044124;28;20487;-78
2022/12/13 10:39:39;;;;;;;17.60;10.00;;;17.50;44.70;;;;;;5049145;28;20424;-78
2022/12/13 10:42:13;;;;;;;15.70;11.10;;;17.90;44.20;;;;;;5035431;28;20516;-78
2022/12/13 10:44:38;;;;;;;12.30;9.60;;;18.00;42.70;;;;;;5033314;28;20430;-79
2022/12/13 10:47:20;;;;;;;14.40;10.30;;;18.40;42.80;;;;;;5033741;28;20411;-79
2022/12/13 10:49:53;;;;;;;15.90;10.83;;;18.10;40.80;;;;;;5039921;28;20587;-78
2022/12/13 10:52:39;;;;;;;14.83;9.70;;;18.30;41.30;;;;;;5046932;28;20425;-78
2022/12/13 10:55:23;;;;;;;16.37;9.10;;;18.60;41.10;;;;;;5037383;28;20496;-78
2022/12/13 10:57:55;;;;;;;12.97;9.07;;;19.10;41.90;;;;;;5032466;28;20418;-78
2022/12/13 11:00:45;;;;;;;14.03;10.43;;;19.60;41.70;;;;;;5031687;28;20915;-78
2022/12/13 11:03:28;;;;;;;14.13;9.60;;;19.70;39.70;;;;;;5032903;28;20458;-78
2022/12/13 11:06:10;;;;;;;13.17;9.23;;;19.80;39.60;;;;;;5033729;28;20406;-78
2022/12/13 11:08:35;;;;;;;16.17;11.50;;;19.40;38.60;;;;;;5034976;28;20398;-79
2022/12/13 11:11:03;;;;;;;14.13;9.90;;;19.30;39.00;;;;;;5034089;28;20410;-79
2022/12/13 11:13:37;;;;;;;13.90;9.67;;;19.50;38.70;;;;;;5036206;28;20226;-80
2022/12/13 11:16:12;;;;;;;11.77;9.57;;;19.80;39.30;;;;;;5035382;28;20910;-79
2022/12/13 11:18:39;;;;;;;16.03;9.93;;;19.90;38.40;;;;;;5036543;28;20433;-79
2022/12/13 11:21:06;;;;;;;16.10;10.70;;;19.20;37.40;;;;;;5032541;28;20414;-79
2022/12/13 11:23:43;;;;;;;12.83;8.90;;;17.70;37.10;;;;;;5033482;28;20414;-79
2022/12/13 11:26:16;;;;;;;14.50;9.57;;;16.50;38.10;;;;;;5033271;28;20398;-79
2022/12/13 11:28:47;;;;;;;15.00;8.80;;;16.20;39.30;;;;;;5032809;28;20421;-80
2022/12/13 11:31:39;;;;;;;12.53;8.60;;;16.30;39.60;;;;;;5035250;28;20429;-80
2022/12/13 11:34:41;;;;;;;16.17;10.27;;;16.20;40.00;;;;;;5049524;28;20442;-78
2022/12/13 11:37:47;;;;;;;16.87;9.67;;;16.20;40.00;;;;;;5033296;28;20509;-79
2022/12/13 11:40:17;;;;;;;13.00;9.03;;;16.50;40.20;;;;;;5032191;28;20414;-78
2022/12/13 11:43:00;;;;;;;11.80;8.93;;;17.10;40.50;;;;;;5031600;28;20488;-78
2022/12/13 11:45:36;;;;;;;11.43;7.80;;;17.40;39.40;;;;;;5032028;28;20811;-78
2022/12/13 11:48:16;;;;;;;16.00;9.20;;;16.60;38.50;;;;;;5031866;28;20414;-79
2022/12/13 11:50:50;;;;;;;13.10;8.70;;;15.80;38.60;;;;;;5032643;28;20403;-78
2022/12/13 11:53:38;;;;;;;15.00;9.93;;;14.80;38.80;;;;;;5032689;28;20433;-79
2022/12/13 11:56:09;;;;;;;13.23;8.73;;;14.80;40.40;;;;;;5032481;28;20439;-79
2022/12/13 11:58:55;;;;;;;16.27;9.30;;;15.20;40.80;;;;;;5032624;28;20414;-78
2022/12/13 12:01:42;;;;;;;14.03;8.03;;;15.60;40.20;;;;;;5033003;28;20458;-78
2022/12/13 12:04:26;;;;;;;11.47;8.97;;;16.10;40.00;;;;;;5032819;28;20943;-78
2022/12/13 12:07:01;;;;;;;13.13;9.20;;;15.90;39.50;;;;;;5033117;28;20414;-78
2022/12/13 12:09:27;;;;;;;14.80;9.70;;;16.20;39.70;;;;;;5033756;28;20898;-79
2022/12/13 12:11:59;;;;;;;11.77;8.13;;;16.50;39.90;;;;;;5036430;28;20402;-78
2022/12/13 12:14:43;;;;;;;13.17;9.63;;;16.90;39.90;;;;;;5036563;28;20452;-79
2022/12/13 12:17:15;;;;;;;14.70;8.80;;;16.10;38.60;;;;;;5036574;28;20776;-78
2022/12/13 12:19:48;;;;;;;15.30;8.87;;;15.60;39.00;;;;;;5036400;28;20414;-80
2022/12/13 12:22:19;;;;;;;17.90;10.30;;;15.80;40.10;;;;;;5036987;28;20512;-79
2022/12/13 12:25:06;;;;;;;13.30;9.43;;;16.00;40.30;;;;;;5037862;28;20426;-78
2022/12/13 12:27:35;;;;;;;16.90;9.63;;;16.00;40.30;;;;;;5036513;28;20892;-78
2022/12/13 12:30:20;;;;;;;14.60;8.90;;;14.80;39.10;;;;;;5038039;28;20417;-78
2022/12/13 12:32:57;;;;;;;16.73;10.40;;;13.20;39.80;;;;;;5037142;28;20444;-78
2022/12/13 12:35:32;;;;;;;16.93;9.20;;;12.10;42.00;;;;;;5036473;28;20418;-79
2022/12/13 12:38:16;;;;;;;14.97;9.60;;;11.20;42.90;;;;;;5036201;28;20428;-79
2022/12/13 12:40:54;;;;;;;15.23;9.17;;;10.00;43.70;;;;;;5034729;28;20418;-78
2022/12/13 12:43:33;;;;;;;15.87;9.57;;;9.60;46.10;;;;;;5036357;28;20468;-79
2022/12/13 12:46:17;;;;;;;13.37;7.50;;;9.00;47.30;;;;;;5036163;28;20429;-78
2022/12/13 12:49:08;;;;;;;14.03;7.70;;;8.60;48.30;;;;;;5035234;28;20403;-78
2022/12/13 12:51:45;;;;;;;14.40;8.30;;;8.70;49.90;;;;;;5035405;28;20413;-79